createdAt,value
2023-03-26T00:02:49.951Z,93.97
2023-03-26T00:06:06.080Z,93.86
2023-03-26T00:09:10.652Z,93.94
2023-03-26T00:12:13.829Z,94.07
2023-03-26T00:15:16.737Z,94.68
2023-03-26T00:18:21.648Z,94.78
2023-03-26T00:21:28.325Z,94.79
2023-03-26T00:24:31.512Z,94.56
2023-03-26T00:27:34.382Z,94.66
2023-03-26T00:30:37.407Z,94.71
2023-03-26T00:33:41.426Z,95.21
2023-03-26T00:36:47.003Z,95.18
2023-03-26T00:39:49.889Z,95.54
2023-03-26T00:42:52.788Z,95.71
2023-03-26T00:45:55.899Z,95.35
2023-03-26T00:49:00.358Z,94.91
2023-03-26T00:52:03.633Z,94.40
2023-03-26T00:55:07.374Z,93.84
2023-03-26T00:58:10.597Z,93.99
2023-03-26T01:01:17.391Z,93.82
2023-03-26T01:04:34.782Z,93.54
2023-03-26T01:07:38.274Z,93.96
2023-03-26T01:10:43.520Z,93.83
2023-03-26T01:14:19.926Z,94.00
2023-03-26T01:17:23.954Z,93.95
2023-03-26T01:20:30.542Z,93.78
2023-03-26T01:23:51.305Z,93.90
2023-03-26T01:27:17.935Z,93.68
2023-03-26T01:30:27.556Z,93.45
2023-03-26T01:33:36.708Z,93.50
2023-03-26T01:36:47.104Z,93.52
2023-03-26T01:40:07.010Z,94.00
2023-03-26T01:43:22.252Z,94.44
2023-03-26T01:46:27.258Z,94.32
2023-03-26T01:49:31.855Z,94.52
2023-03-26T01:52:35.317Z,94.97
2023-03-26T01:56:20.499Z,95.09
2023-03-26T01:59:49.458Z,94.79
2023-03-26T02:02:55.564Z,95.07
2023-03-26T02:06:04.861Z,94.76
2023-03-26T02:09:10.961Z,95.10
2023-03-26T02:12:16.252Z,95.61
2023-03-26T02:15:19.688Z,96.61
2023-03-26T02:18:24.334Z,96.12
2023-03-26T02:21:28.622Z,96.23
2023-03-26T02:24:31.315Z,96.59
2023-03-26T02:27:34.506Z,95.79
2023-03-26T02:30:37.900Z,96.23
2023-03-26T02:33:40.987Z,96.23
2023-03-26T02:36:43.688Z,96.67
2023-03-26T02:39:46.995Z,96.60
2023-03-26T02:42:50.453Z,96.20
2023-03-26T02:45:53.780Z,96.15
2023-03-26T02:49:00.201Z,96.84
2023-03-26T02:52:06.519Z,97.50
2023-03-26T02:55:09.704Z,96.89
2023-03-26T02:58:17.336Z,96.66
2023-03-26T03:01:20.180Z,96.38
2023-03-26T03:04:23.757Z,96.38
2023-03-26T03:07:26.534Z,97.32
2023-03-26T03:10:32.782Z,95.74
2023-03-26T03:13:36.058Z,95.44
2023-03-26T03:16:38.978Z,95.88
2023-03-26T03:19:41.935Z,95.93
2023-03-26T03:22:44.962Z,96.93
2023-03-26T03:25:48.033Z,96.77
2023-03-26T03:28:51.179Z,96.28
2023-03-26T03:31:54.012Z,96.01
2023-03-26T03:34:58.662Z,96.03
2023-03-26T03:38:01.545Z,95.78
2023-03-26T03:41:07.634Z,95.92
2023-03-26T03:44:10.566Z,95.74
2023-03-26T03:47:15.560Z,96.38
2023-03-26T03:50:18.847Z,96.36
2023-03-26T03:53:26.258Z,96.91
2023-03-26T03:56:29.244Z,97.28
2023-03-26T03:59:34.089Z,97.50
2023-03-26T04:02:39.119Z,97.10
2023-03-26T04:05:43.832Z,97.07
2023-03-26T04:08:46.857Z,96.59
2023-03-26T04:11:51.046Z,97.37
2023-03-26T04:14:54.549Z,97.46
2023-03-26T04:17:57.726Z,98.78
2023-03-26T04:21:03.345Z,99.72
2023-03-26T04:24:07.311Z,100.00
2023-03-26T04:27:19.056Z,99.76
2023-03-26T04:30:23.362Z,99.51
2023-03-26T04:33:35.784Z,99.92
2023-03-26T04:36:42.403Z,100.00
2023-03-26T04:39:45.475Z,100.00
2023-03-26T04:42:54.698Z,99.36
2023-03-26T04:45:58.158Z,99.65
2023-03-26T04:49:02.229Z,100.00
2023-03-26T04:52:05.612Z,100.00
2023-03-26T04:55:33.208Z,100.00
2023-03-26T04:58:36.252Z,100.00
2023-03-26T05:01:40.509Z,100.00
2023-03-26T05:04:46.074Z,99.98
2023-03-26T05:07:49.512Z,100.00
2023-03-26T05:10:54.135Z,99.95
2023-03-26T05:13:57.771Z,100.00
2023-03-26T05:17:01.537Z,99.25
2023-03-26T05:20:05.830Z,99.66
2023-03-26T05:23:17.088Z,99.67
2023-03-26T05:26:20.738Z,100.00
2023-03-26T05:29:24.353Z,100.00
2023-03-26T05:32:27.816Z,100.00
2023-03-26T05:35:30.549Z,100.00
2023-03-26T05:38:34.224Z,100.00
2023-03-26T05:41:37.593Z,100.00
2023-03-26T05:44:40.912Z,100.00
2023-03-26T05:47:44.643Z,100.00
2023-03-26T05:50:49.152Z,99.91
2023-03-26T05:53:52.400Z,99.06
2023-03-26T05:57:00.554Z,98.77
2023-03-26T06:00:09.136Z,97.76
2023-03-26T06:03:19.257Z,97.30
2023-03-26T06:06:24.105Z,97.20
2023-03-26T06:09:29.595Z,96.15
2023-03-26T06:12:32.822Z,94.59
2023-03-26T06:15:35.711Z,93.73
2023-03-26T06:18:40.145Z,92.20
2023-03-26T06:21:52.810Z,91.67
2023-03-26T06:24:56.335Z,91.26
2023-03-26T06:27:59.020Z,90.74
2023-03-26T06:31:02.985Z,89.80
2023-03-26T06:34:06.379Z,89.75
2023-03-26T06:37:09.349Z,89.09
2023-03-26T06:40:13.625Z,88.13
2023-03-26T06:43:18.256Z,88.34
2023-03-26T06:46:23.583Z,87.87
2023-03-26T06:49:30.405Z,86.98
2023-03-26T06:52:38.217Z,87.96
2023-03-26T06:55:41.931Z,87.88
2023-03-26T06:58:45.601Z,85.23
2023-03-26T07:01:53.858Z,84.77
2023-03-26T07:05:13.938Z,82.96
2023-03-26T07:08:26.920Z,82.30
2023-03-26T07:11:34.532Z,81.40
2023-03-26T07:14:38.884Z,80.89
2023-03-26T07:17:42.205Z,79.48
2023-03-26T07:20:46.525Z,80.15
2023-03-26T07:23:49.745Z,80.10
2023-03-26T07:26:57.309Z,80.26
2023-03-26T07:30:08.114Z,79.45
2023-03-26T07:33:48.760Z,77.92
2023-03-26T07:37:05.730Z,76.47
2023-03-26T07:40:37.825Z,76.83
2023-03-26T07:43:50.805Z,76.04
2023-03-26T07:46:54.815Z,74.36
2023-03-26T07:49:58.337Z,72.78
2023-03-26T07:53:02.947Z,73.87
2023-03-26T07:56:16.702Z,71.78
2023-03-26T07:59:40.344Z,72.18
2023-03-26T08:03:02.467Z,71.36
2023-03-26T08:06:10.497Z,70.12
2023-03-26T08:09:24.074Z,70.94
2023-03-26T08:12:31.697Z,69.47
2023-03-26T08:16:12.060Z,68.88
2023-03-26T08:19:27.333Z,67.23
2023-03-26T08:22:38.447Z,67.11
2023-03-26T08:26:07.626Z,64.02
2023-03-26T08:29:28.516Z,63.19
2023-03-26T08:32:31.866Z,65.67
2023-03-26T08:35:35.294Z,64.22
2023-03-26T08:38:38.395Z,63.60
2023-03-26T08:41:46.767Z,63.81
2023-03-26T08:45:03.781Z,64.27
2023-03-26T08:48:44.299Z,63.27
2023-03-26T08:52:13.416Z,63.56
2023-03-26T08:55:38.298Z,63.11
2023-03-26T08:58:55.074Z,62.06
2023-03-26T09:02:04.932Z,61.45
2023-03-26T09:05:26.487Z,60.65
2023-03-26T09:08:57.463Z,58.63
2023-03-26T09:12:19.353Z,58.16
2023-03-26T09:15:50.150Z,59.68
2023-03-26T09:19:35.062Z,56.50
2023-03-26T09:23:14.994Z,57.57
2023-03-26T09:26:51.531Z,55.21
2023-03-26T09:30:03.017Z,51.23
2023-03-26T09:33:28.471Z,51.51
2023-03-26T09:36:49.701Z,53.33
2023-03-26T09:40:17.533Z,50.42
2023-03-26T09:43:48.965Z,50.59
2023-03-26T09:47:12.022Z,49.59
2023-03-26T09:50:17.434Z,48.97
2023-03-26T09:53:23.039Z,47.92
2023-03-26T09:56:41.619Z,47.51
2023-03-26T09:59:44.998Z,48.52
2023-03-26T10:03:08.946Z,48.21
2023-03-26T10:06:28.133Z,46.05
2023-03-26T10:09:56.742Z,45.80
2023-03-26T10:13:15.924Z,43.81
2023-03-26T10:16:31.391Z,42.49
2023-03-26T10:19:43.487Z,42.52
2023-03-26T10:23:00.768Z,41.42
2023-03-26T10:26:17.863Z,40.71
2023-03-26T10:29:26.750Z,41.06
2023-03-26T10:32:45.338Z,40.50
2023-03-26T10:36:02.760Z,38.81
2023-03-26T10:39:37.237Z,39.97
2023-03-26T10:42:56.078Z,40.63
2023-03-26T10:46:37.408Z,40.31
2023-03-26T10:49:54.872Z,42.18
2023-03-26T10:53:02.258Z,42.51
2023-03-26T10:56:23.346Z,41.90
2023-03-26T10:59:27.685Z,40.93
2023-03-26T11:02:39.429Z,41.20
2023-03-26T11:06:16.003Z,40.39
2023-03-26T11:09:28.268Z,40.43
2023-03-26T11:12:42.362Z,39.95
2023-03-26T11:16:22.674Z,39.14
2023-03-26T11:20:01.707Z,38.35
2023-03-26T11:23:29.132Z,37.66
2023-03-26T11:26:55.722Z,37.29
2023-03-26T11:30:23.512Z,35.18
2023-03-26T11:33:33.048Z,36.81
2023-03-26T11:36:39.734Z,36.25
2023-03-26T11:39:56.849Z,37.05
2023-03-26T11:43:03.850Z,36.39
2023-03-26T11:46:12.099Z,35.41
2023-03-26T11:49:19.340Z,36.05
2023-03-26T11:52:22.648Z,35.05
2023-03-26T11:55:27.683Z,35.66
2023-03-26T11:58:39.128Z,36.00
2023-03-26T12:02:04.925Z,34.44
2023-03-26T12:05:21.752Z,35.24
2023-03-26T12:08:34.591Z,34.68
2023-03-26T12:11:38.015Z,34.51
2023-03-26T12:14:43.277Z,34.33
2023-03-26T12:17:56.545Z,33.53
2023-03-26T12:21:10.282Z,33.79
2023-03-26T12:24:32.001Z,33.61
2023-03-26T12:27:38.025Z,33.38
2023-03-26T12:31:01.023Z,33.28
2023-03-26T12:34:07.972Z,33.17
2023-03-26T12:37:37.292Z,33.29
2023-03-26T12:40:42.534Z,33.50
2023-03-26T12:44:46.087Z,33.04
2023-03-26T12:47:57.131Z,34.13
2023-03-26T12:51:11.156Z,34.00
2023-03-26T12:54:35.437Z,34.44
2023-03-26T12:57:58.619Z,33.71
2023-03-26T13:01:16.039Z,32.98
2023-03-26T13:05:05.795Z,33.90
2023-03-26T13:08:41.657Z,32.73
2023-03-26T13:11:44.727Z,32.83
2023-03-26T13:15:13.739Z,33.95
2023-03-26T13:18:24.862Z,33.40
2023-03-26T13:21:41.415Z,32.76
2023-03-26T13:25:08.392Z,33.17
2023-03-26T13:28:26.359Z,33.09
2023-03-26T13:31:41.945Z,33.77
2023-03-26T13:35:12.231Z,33.82
2023-03-26T13:38:27.285Z,33.35
2023-03-26T13:41:37.696Z,34.00
2023-03-26T13:44:53.217Z,33.79
2023-03-26T13:48:17.264Z,34.60
2023-03-26T13:51:42.718Z,34.41
2023-03-26T13:55:00.568Z,34.10
2023-03-26T13:58:11.081Z,34.84
2023-03-26T14:01:34.305Z,34.22
2023-03-26T14:04:44.534Z,33.86
2023-03-26T14:07:52.698Z,33.87
2023-03-26T14:11:01.895Z,33.53
2023-03-26T14:14:13.552Z,33.70
2023-03-26T14:17:26.426Z,32.63
2023-03-26T14:20:41.203Z,32.32
2023-03-26T14:24:02.642Z,32.66
2023-03-26T14:27:21.864Z,32.13
2023-03-26T14:30:42.370Z,33.06
2023-03-26T14:34:07.499Z,33.41
2023-03-26T14:37:37.969Z,33.40
2023-03-26T14:40:43.730Z,33.64
2023-03-26T14:44:05.601Z,33.09
2023-03-26T14:47:20.956Z,33.04
2023-03-26T14:50:38.852Z,33.83
2023-03-26T14:53:49.787Z,32.89
2023-03-26T14:57:28.384Z,33.42
2023-03-26T15:01:15.125Z,33.93
2023-03-26T15:04:33.038Z,32.97
2023-03-26T15:07:51.653Z,33.44
2023-03-26T15:11:24.335Z,33.69
2023-03-26T15:14:36.062Z,32.97
2023-03-26T15:17:57.572Z,33.66
2023-03-26T15:21:18.784Z,33.16
2023-03-26T15:24:46.413Z,33.50
2023-03-26T15:28:12.268Z,33.92
2023-03-26T15:31:49.465Z,33.80
2023-03-26T15:35:17.542Z,33.76
2023-03-26T15:38:42.534Z,33.52
2023-03-26T15:41:55.421Z,33.92
2023-03-26T15:45:19.424Z,33.98
2023-03-26T15:48:34.964Z,34.08
2023-03-26T15:51:49.422Z,34.72
2023-03-26T15:55:17.008Z,35.15
2023-03-26T15:58:31.891Z,34.82
2023-03-26T16:02:02.415Z,36.14
2023-03-26T16:05:33.372Z,36.70
2023-03-26T16:08:39.234Z,36.87
2023-03-26T16:11:43.524Z,37.55
2023-03-26T16:15:03.936Z,37.67
2023-03-26T16:18:11.757Z,38.61
2023-03-26T16:21:37.206Z,38.93
2023-03-26T16:24:44.817Z,38.87
2023-03-26T16:28:05.258Z,39.32
2023-03-26T16:31:23.550Z,40.10
2023-03-26T16:35:00.418Z,40.84
2023-03-26T16:38:11.575Z,41.58
2023-03-26T16:41:19.745Z,42.32
2023-03-26T16:44:35.074Z,42.36
2023-03-26T16:47:52.744Z,42.73
2023-03-26T16:51:31.919Z,43.05
2023-03-26T16:54:54.069Z,43.20
2023-03-26T16:58:29.871Z,42.09
2023-03-26T17:01:56.290Z,42.01
2023-03-26T17:05:34.298Z,42.42
2023-03-26T17:09:04.666Z,42.17
2023-03-26T17:12:32.977Z,42.91
2023-03-26T17:15:42.264Z,43.22
2023-03-26T17:18:51.817Z,44.06
2023-03-26T17:22:00.887Z,43.90
2023-03-26T17:25:28.744Z,44.29
2023-03-26T17:28:41.257Z,45.24
2023-03-26T17:31:51.162Z,44.62
2023-03-26T17:35:02.136Z,44.95
2023-03-26T17:38:17.789Z,45.47
2023-03-26T17:41:51.162Z,45.73
2023-03-26T17:45:07.939Z,46.01
2023-03-26T17:48:21.898Z,46.71
2023-03-26T17:51:46.584Z,47.59
2023-03-26T17:54:53.356Z,47.18
2023-03-26T17:58:19.000Z,47.84
2023-03-26T18:01:28.908Z,47.43
2023-03-26T18:04:39.067Z,47.10
2023-03-26T18:08:06.231Z,46.62
2023-03-26T18:11:24.632Z,46.40
2023-03-26T18:14:52.458Z,47.30
2023-03-26T18:18:16.587Z,46.24
2023-03-26T18:21:27.916Z,45.91
2023-03-26T18:24:36.675Z,45.33
2023-03-26T18:27:40.959Z,45.76
2023-03-26T18:30:47.806Z,45.61
2023-03-26T18:33:55.817Z,45.85
2023-03-26T18:37:08.486Z,45.49
2023-03-26T18:40:21.029Z,45.17
2023-03-26T18:43:34.492Z,45.70
2023-03-26T18:46:38.691Z,45.46
2023-03-26T18:49:47.424Z,45.66
2023-03-26T18:52:51.245Z,44.68
2023-03-26T18:55:54.768Z,45.04
2023-03-26T18:59:02.521Z,45.31
2023-03-26T19:02:13.904Z,46.45
2023-03-26T19:05:18.561Z,46.50
2023-03-26T19:08:23.883Z,46.49
2023-03-26T19:11:28.071Z,46.04
2023-03-26T19:14:35.385Z,45.84
2023-03-26T19:17:42.412Z,45.31
2023-03-26T19:20:50.065Z,45.46
2023-03-26T19:23:55.811Z,44.73
2023-03-26T19:26:59.682Z,45.93
2023-03-26T19:30:02.654Z,46.28
2023-03-26T19:33:19.283Z,45.37
2023-03-26T19:36:29.630Z,45.16
2023-03-26T19:39:40.481Z,45.68
2023-03-26T19:42:44.927Z,46.02
2023-03-26T19:46:00.111Z,45.72
2023-03-26T19:49:04.462Z,45.84
2023-03-26T19:52:15.979Z,46.00
2023-03-26T19:55:22.539Z,45.68
2023-03-26T19:58:27.587Z,45.76
2023-03-26T20:04:35.131Z,47.11
2023-03-26T20:07:39.382Z,46.97
2023-03-26T20:10:44.276Z,47.96
2023-03-26T20:13:48.177Z,48.11
2023-03-26T20:16:52.221Z,48.29
2023-03-26T20:19:55.143Z,49.33
2023-03-26T20:22:58.556Z,48.59
2023-03-26T20:26:01.184Z,49.21
2023-03-26T20:29:04.807Z,49.46
2023-03-26T20:32:19.785Z,50.18
2023-03-26T20:35:35.605Z,51.26
2023-03-26T20:38:45.093Z,52.68
2023-03-26T20:41:50.076Z,54.27
2023-03-26T20:44:52.704Z,54.74
2023-03-26T20:47:55.748Z,54.19
2023-03-26T20:50:58.841Z,53.46
2023-03-26T20:54:02.657Z,53.46
2023-03-26T20:57:05.548Z,53.40
2023-03-26T21:00:23.256Z,54.36
2023-03-26T21:03:25.919Z,53.52
2023-03-26T21:06:28.968Z,53.18
2023-03-26T21:09:35.560Z,54.87
2023-03-26T21:12:50.742Z,58.90
2023-03-26T21:15:53.686Z,60.67
2023-03-26T21:18:57.528Z,60.83
2023-03-26T21:22:17.416Z,61.59
2023-03-26T21:25:28.465Z,62.05
2023-03-26T21:28:42.431Z,60.97
2023-03-26T21:31:46.797Z,59.80
2023-03-26T21:34:58.644Z,59.54
2023-03-26T21:38:04.819Z,61.17
2023-03-26T21:41:07.918Z,64.56
2023-03-26T21:44:11.136Z,58.26
2023-03-26T21:47:14.179Z,59.49
2023-03-26T21:50:22.006Z,62.14
2023-03-26T21:53:25.072Z,63.55
2023-03-26T21:56:59.054Z,68.05
2023-03-26T22:00:18.467Z,68.22
2023-03-26T22:03:50.499Z,69.45
2023-03-26T22:07:14.097Z,70.91
2023-03-26T22:10:18.691Z,71.00
2023-03-26T22:13:21.350Z,71.44
2023-03-26T22:16:27.100Z,68.88
2023-03-26T22:19:30.554Z,70.73
2023-03-26T22:22:34.674Z,71.55
2023-03-26T22:25:37.456Z,70.93
2023-03-26T22:28:40.347Z,70.80
2023-03-26T22:31:43.051Z,70.84
2023-03-26T22:34:46.121Z,71.63
2023-03-26T22:37:49.024Z,72.62
2023-03-26T22:40:58.995Z,73.79
2023-03-26T22:44:13.274Z,72.79
2023-03-26T22:47:22.570Z,71.62
2023-03-26T22:50:27.115Z,73.36
2023-03-26T22:53:30.955Z,72.68
2023-03-26T22:56:33.733Z,73.59
2023-03-26T22:59:37.131Z,75.02
2023-03-26T23:02:40.748Z,74.68
2023-03-26T23:05:43.636Z,75.86
2023-03-26T23:08:46.802Z,75.96
2023-03-26T23:11:50.697Z,75.34
2023-03-26T23:14:53.690Z,75.16
2023-03-26T23:17:58.876Z,75.21
2023-03-26T23:21:01.636Z,75.23
2023-03-26T23:24:05.055Z,76.59
2023-03-26T23:27:07.943Z,76.05
2023-03-26T23:30:11.545Z,75.80
2023-03-26T23:33:15.347Z,76.47
2023-03-26T23:36:20.042Z,76.50
2023-03-26T23:39:22.712Z,77.33
2023-03-26T23:42:29.016Z,77.78
2023-03-26T23:45:33.421Z,77.52
2023-03-26T23:48:37.497Z,77.42
2023-03-26T23:51:40.260Z,77.99
2023-03-26T23:54:43.182Z,77.87
2023-03-26T23:57:46.449Z,78.01
